Stoughton, Massachusetts
Current Conditions -  °F | °C
As of 8:53 AM on Monday 24 Nov 2014 (Local Time) from KOWD Reporting Station
Light Rain Light Rain  
Wind Chill: 61°   Ceiling: 1200
Heat Index: 61°   Visibility: 2.5mi
Dew Point: 59°   Wind: 18mph
Humidity: 93%   Direction: 160°SSE
Pressure: 29.75"   Gusts: 25mph
Location:  42.13°N, 71.1°W
Report Text: KOWD 241353Z 16016G22KT 2 1/2SM -RA BR BKN012 OVC017 16/15 A2975 RMK AO2 PK WND 17026/1310 SLP073 P0006 T01610150
Loading
Personal Weather Stations






























Interactive Weather Map New forecast layout! Learn more

10-Day Weather Forecast

Advertisements
Track Severe Weather on mobile